Time;durP1;ratioP1;P1;durP2;ratioP2;P2;SDS_P1;SDS_P2;PMS_P1;PMS_P2;Temp;Humidity;BMP_temperature;BMP_pressure;BME280_temperature;BME280_humidity;BME280_pressure;Samples;Min_cycle;Max_cycle;Signal;HPM_P1;HPM_P2
2023/01/29 00:01:17;;;;;;;4.53;3.60;;;;;;;4.00;43.76;99038.91;8446709;28;20546;-65
2023/01/29 00:05:21;;;;;;;4.33;3.93;;;;;;;4.19;42.67;99044.00;8446308;28;20228;-65
2023/01/29 00:09:31;;;;;;;3.60;3.30;;;;;;;4.14;42.89;99045.72;8446392;28;20232;-65
2023/01/29 00:13:34;;;;;;;3.97;3.57;;;;;;;4.20;42.78;99055.97;8446348;28;20238;-65
2023/01/29 00:17:37;;;;;;;4.30;3.93;;;;;;;4.07;42.65;99040.63;8446229;28;20231;-65
2023/01/29 00:21:41;;;;;;;4.33;3.93;;;;;;;4.08;42.95;99050.00;8446076;28;20327;-65
2023/01/29 00:25:44;;;;;;;4.10;3.80;;;;;;;4.13;42.45;99039.72;8445785;28;20216;-65
2023/01/29 00:30:07;;;;;;;5.17;4.10;;;;;;;4.18;42.24;99037.19;8445720;28;20280;-65
2023/01/29 00:34:10;;;;;;;4.77;3.73;;;;;;;4.25;42.51;99038.88;8444616;28;20223;-65
2023/01/29 00:38:14;;;;;;;4.07;3.27;;;;;;;4.23;41.83;99035.47;8445431;28;20416;-65
2023/01/29 00:46:37;;;;;;;3.60;3.30;;;;;;;3.92;42.92;99020.09;8445332;28;20271;-65
2023/01/29 00:50:40;;;;;;;3.50;3.20;;;;;;;3.79;42.54;99020.97;8445430;28;20219;-65
2023/01/29 00:54:44;;;;;;;3.70;3.40;;;;;;;3.88;42.34;99016.72;8444794;28;20263;-65
2023/01/29 00:58:47;;;;;;;4.00;3.50;;;;;;;4.15;41.71;99021.78;8445044;28;20235;-65
2023/01/29 01:03:06;;;;;;;3.77;3.00;;;;;;;3.88;42.36;99018.41;8444736;28;20538;-65
2023/01/29 01:07:09;;;;;;;4.83;3.80;;;;;;;3.65;43.00;99013.28;8444466;28;20231;-65
2023/01/29 01:11:12;;;;;;;4.17;3.77;;;;;;;3.86;42.93;99020.97;8444758;28;20227;-65
2023/01/29 01:15:16;;;;;;;3.67;3.37;;;;;;;3.57;43.04;99015.84;8444549;28;20231;-65
2023/01/29 01:19:19;;;;;;;4.27;3.50;;;;;;;3.48;43.12;99013.28;8444443;28;20407;-65
2023/01/29 01:23:21;;;;;;;3.60;3.30;;;;;;;3.66;43.20;99008.16;8444276;28;20313;-65
2023/01/29 01:27:26;;;;;;;4.67;3.70;;;;;;;3.79;43.14;99014.16;8443648;28;20238;-65
2023/01/29 01:31:29;;;;;;;4.23;3.83;;;;;;;3.79;42.99;99013.28;8443635;28;20246;-65
2023/01/29 01:35:32;;;;;;;4.40;3.80;;;;;;;3.71;43.13;99024.41;8443809;28;20235;-65
2023/01/29 01:39:35;;;;;;;5.60;4.03;;;;;;;3.77;43.05;99020.09;8443982;28;20224;-65
2023/01/29 01:43:54;;;;;;;4.23;3.67;;;;;;;3.76;42.33;99005.59;8443510;28;20231;-65
2023/01/29 01:48:00;;;;;;;3.90;3.50;;;;;;;3.56;43.15;99010.72;8443408;28;20224;-65
2023/01/29 01:52:03;;;;;;;6.13;3.90;;;;;;;3.71;42.91;99019.28;8443559;28;20224;-65
2023/01/29 01:56:09;;;;;;;4.97;3.80;;;;;;;3.68;42.68;99010.72;8443707;28;20230;-65
2023/01/29 02:00:16;;;;;;;3.83;3.37;;;;;;;3.83;42.48;99015.00;8443569;28;20281;-65
2023/01/29 02:13:07;;;;;;;4.13;3.73;;;;;;;3.67;43.12;99009.00;8443228;28;20227;-65
2023/01/29 02:17:13;;;;;;;4.80;3.80;;;;;;;3.78;42.29;99011.59;8443177;28;20234;-65
2023/01/29 02:21:28;;;;;;;4.10;3.70;;;;;;;3.78;42.51;99009.03;8443276;28;20406;-65
2023/01/29 02:26:08;;;;;;;4.37;3.60;;;;;;;3.98;42.12;99003.88;8443137;28;20231;-65
2023/01/29 02:30:17;;;;;;;3.80;3.50;;;;;;;3.74;42.47;99000.47;8437567;28;20238;-65
2023/01/29 02:34:29;;;;;;;4.00;3.60;;;;;;;3.87;42.03;98999.63;8443579;28;20232;-65
2023/01/29 02:38:37;;;;;;;5.50;3.80;;;;;;;3.57;42.39;99002.19;8443185;28;20238;-65
2023/01/29 02:42:46;;;;;;;3.93;3.63;;;;;;;3.71;41.86;98995.34;8443472;28;20239;-65
2023/01/29 02:46:57;;;;;;;3.97;3.67;;;;;;;3.61;42.54;98999.63;8442815;28;20227;-65
2023/01/29 02:51:04;;;;;;;4.30;3.63;;;;;;;3.82;42.15;99001.31;8443518;28;20713;-65
2023/01/29 02:55:10;;;;;;;4.10;3.70;;;;;;;3.95;41.51;99002.16;8443793;28;20250;-65
2023/01/29 02:59:16;;;;;;;4.90;4.50;;;;;;;3.82;42.17;98991.06;8449073;28;20242;-65
2023/01/29 03:03:25;;;;;;;5.17;4.50;;;;;;;3.92;42.24;98994.47;8449410;28;20223;-65
2023/01/29 03:07:43;;;;;;;4.20;3.80;;;;;;;3.83;42.38;98994.50;8449187;28;20235;-65
2023/01/29 03:11:50;;;;;;;5.17;4.50;;;;;;;3.69;42.15;98977.44;8448935;28;20283;-65
2023/01/29 03:16:00;;;;;;;5.07;4.57;;;;;;;3.84;42.23;99003.88;8449194;28;20234;-65
2023/01/29 03:20:08;;;;;;;4.70;4.30;;;;;;;3.87;42.59;99006.47;8448920;28;20223;-65
2023/01/29 03:32:54;;;;;;;6.00;4.73;;;;;;;3.55;43.23;99009.88;8448161;28;20228;-65
2023/01/29 03:37:01;;;;;;;5.20;4.70;;;;;;;3.84;41.95;99001.31;8448373;28;20558;-65
2023/01/29 03:41:08;;;;;;;4.73;4.20;;;;;;;3.49;42.51;99015.84;8448384;28;20239;-65
2023/01/29 03:45:17;;;;;;;5.40;4.90;;;;;;;3.59;42.88;99014.13;8448005;28;20232;-65
2023/01/29 03:49:25;;;;;;;5.20;4.80;;;;;;;3.81;42.77;99012.44;8448080;28;20227;-65
2023/01/29 03:53:34;;;;;;;4.23;3.93;;;;;;;3.50;42.57;98978.25;8447826;28;20251;-65
2023/01/29 03:57:40;;;;;;;4.97;4.40;;;;;;;3.76;42.79;99028.66;8447667;28;20223;-65
2023/01/29 04:01:46;;;;;;;5.07;4.67;;;;;;;3.70;43.01;99014.16;8447284;28;20227;-65
2023/01/29 04:05:52;;;;;;;5.07;4.43;;;;;;;3.62;43.29;99037.19;8447231;28;20224;-65
2023/01/29 04:09:58;;;;;;;6.27;4.30;;;;;;;3.66;42.90;99041.47;8447284;28;20238;-65
2023/01/29 04:14:02;;;;;;;4.50;4.20;;;;;;;3.60;43.09;99036.34;8447230;28;20538;-65
2023/01/29 04:18:05;;;;;;;5.10;4.70;;;;;;;2.84;42.77;98927.00;8447054;28;20226;-65
2023/01/29 04:22:13;;;;;;;4.20;3.80;;;;;;;3.54;42.73;99015.81;8446764;28;20219;-65
2023/01/29 04:26:28;;;;;;;5.37;4.13;;;;;;;3.96;41.94;99015.81;8446844;28;20228;-65
2023/01/29 04:30:39;;;;;;;5.60;4.80;;;;;;;3.83;42.76;99031.22;8446868;28;20458;-65
2023/01/29 04:34:55;;;;;;;5.20;4.70;;;;;;;3.59;43.15;99028.66;8445629;28;20310;-65
2023/01/29 04:39:06;;;;;;;4.90;4.50;;;;;;;3.73;43.10;99042.31;8446479;28;20231;-65
2023/01/29 04:43:17;;;;;;;5.20;4.00;;;;;;;3.90;41.75;99027.81;8446210;28;20228;-66
2023/01/29 04:47:25;;;;;;;4.37;3.97;;;;;;;3.58;42.68;99032.94;8446338;28;20224;-66
2023/01/29 04:51:35;;;;;;;5.00;3.90;;;;;;;3.58;42.76;99025.25;8446175;28;20231;-65
2023/01/29 04:55:40;;;;;;;4.40;4.10;;;;;;;3.96;42.44;99014.16;8446071;28;20549;-65
2023/01/29 04:59:47;;;;;;;4.87;3.87;;;;;;;3.89;42.55;99015.00;8445464;28;20231;-65
2023/01/29 05:03:50;;;;;;;4.03;3.73;;;;;;;3.76;42.21;99000.47;8445607;28;20428;-65
2023/01/29 05:07:54;;;;;;;3.53;3.23;;;;;;;3.67;41.97;99004.72;8445559;28;20383;-65
2023/01/29 05:11:57;;;;;;;4.67;4.03;;;;;;;3.60;42.59;99005.63;8445514;28;20235;-65
2023/01/29 05:16:04;;;;;;;4.43;4.13;;;;;;;3.76;42.18;99003.03;8445310;28;20263;-65
2023/01/29 05:20:09;;;;;;;4.53;4.13;;;;;;;3.88;41.61;98993.66;8444760;28;20235;-66
2023/01/29 05:24:13;;;;;;;4.60;4.20;;;;;;;3.57;41.90;98989.38;8445117;28;20231;-65
2023/01/29 05:28:16;;;;;;;4.57;4.27;;;;;;;3.70;41.81;98991.94;8445212;28;20507;-65
2023/01/29 05:32:20;;;;;;;4.93;4.40;;;;;;;3.80;41.80;98976.56;8444741;28;20233;-65
2023/01/29 05:36:24;;;;;;;4.77;4.37;;;;;;;3.79;41.81;98965.47;8444927;28;20227;-65
2023/01/29 05:40:27;;;;;;;4.27;3.87;;;;;;;3.33;42.06;98953.53;8444824;28;20227;-65
2023/01/29 05:44:29;;;;;;;5.60;4.23;;;;;;;3.67;42.52;98940.69;8444668;28;20230;-66
2023/01/29 05:48:34;;;;;;;4.27;3.93;;;;;;;3.78;41.86;98958.63;8444747;28;20227;-67
2023/01/29 05:52:36;;;;;;;4.10;3.70;;;;;;;3.76;42.09;98952.66;8444695;28;20226;-65
2023/01/29 05:56:39;;;;;;;4.10;3.70;;;;;;;3.82;41.95;98964.59;8444673;28;20227;-65
2023/01/29 06:00:42;;;;;;;4.93;3.90;;;;;;;3.80;42.08;98963.75;8444075;28;20219;-65
2023/01/29 06:04:46;;;;;;;4.07;3.50;;;;;;;3.81;41.98;98966.31;8444395;28;20219;-65
2023/01/29 06:08:49;;;;;;;4.20;3.87;;;;;;;3.76;42.17;98969.75;8444362;28;20228;-66
2023/01/29 06:12:52;;;;;;;4.50;4.07;;;;;;;3.58;42.39;98952.66;8444536;28;20223;-65
2023/01/29 06:16:55;;;;;;;4.13;3.70;;;;;;;3.68;42.24;98957.78;8444080;28;20223;-65
2023/01/29 06:21:02;;;;;;;4.20;3.90;;;;;;;3.41;42.47;98933.03;8443991;28;20254;-65
2023/01/29 06:25:06;;;;;;;4.47;4.07;;;;;;;3.80;41.86;98979.13;8444077;28;20436;-66
2023/01/29 06:29:08;;;;;;;4.47;4.10;;;;;;;3.64;42.26;98989.38;8444295;28;20426;-65
2023/01/29 06:33:11;;;;;;;4.50;4.20;;;;;;;3.22;42.15;98977.38;8447968;28;20250;-66
2023/01/29 06:37:16;;;;;;;4.70;4.30;;;;;;;3.61;42.36;98983.41;8450279;28;20227;-66
2023/01/29 06:41:21;;;;;;;4.67;4.27;;;;;;;3.75;42.38;98991.94;8450323;28;20227;-66
2023/01/29 06:45:24;;;;;;;4.87;4.40;;;;;;;3.65;42.27;98980.81;8450131;28;20226;-66
2023/01/29 06:49:27;;;;;;;5.00;4.70;;;;;;;3.78;42.21;98983.41;8450062;28;20453;-66
2023/01/29 06:53:31;;;;;;;4.93;4.43;;;;;;;3.75;42.09;98993.63;8449731;28;20231;-66
2023/01/29 06:57:34;;;;;;;5.03;4.63;;;;;;;3.49;42.80;98992.78;8449632;28;20234;-66
2023/01/29 07:01:41;;;;;;;5.10;4.70;;;;;;;3.69;42.51;98987.69;8449179;28;20242;-66
2023/01/29 07:05:50;;;;;;;4.83;4.53;;;;;;;3.74;42.26;98990.22;8448951;28;20518;-66
2023/01/29 07:09:54;;;;;;;5.67;5.17;;;;;;;3.81;42.08;98994.50;8449209;28;20236;-66
2023/01/29 07:13:57;;;;;;;5.33;4.93;;;;;;;3.79;42.14;98996.22;8449283;28;20238;-66
2023/01/29 07:18:02;;;;;;;5.17;4.77;;;;;;;3.79;42.60;98996.22;8449062;28;20565;-66
2023/01/29 07:22:05;;;;;;;5.97;5.47;;;;;;;3.41;43.11;98988.50;8448767;28;20228;-66
2023/01/29 07:26:10;;;;;;;5.60;5.10;;;;;;;3.80;42.22;98981.69;8448913;28;20264;-66
2023/01/29 07:30:14;;;;;;;5.70;5.30;;;;;;;3.76;42.45;98952.66;8448792;28;20337;-66
2023/01/29 07:34:17;;;;;;;7.10;6.40;;;;;;;3.95;42.28;99003.88;8448555;28;20227;-65
2023/01/29 07:38:20;;;;;;;5.57;5.10;;;;;;;3.78;42.22;99002.19;8448379;28;20227;-66
2023/01/29 07:42:24;;;;;;;6.73;6.13;;;;;;;3.79;42.26;99009.03;8447982;28;20534;-66
2023/01/29 07:46:27;;;;;;;6.10;5.60;;;;;;;3.58;42.27;99015.00;8448195;28;20231;-66
2023/01/29 07:50:31;;;;;;;7.93;7.17;;;;;;;3.10;42.29;98876.72;8447892;28;20452;-66
2023/01/29 07:54:34;;;;;;;6.87;6.27;;;;;;;3.68;42.19;99015.84;8447977;28;20262;-66
2023/01/29 07:58:38;;;;;;;6.10;5.60;;;;;;;3.94;41.69;99035.47;8447913;28;20234;-66
2023/01/29 08:02:41;;;;;;;6.27;5.77;;;;;;;3.87;41.92;99043.19;8447296;28;20224;-66
2023/01/29 08:06:44;;;;;;;7.73;6.93;;;;;;;3.81;41.67;99030.38;8447131;28;20235;-66
2023/01/29 08:10:47;;;;;;;6.13;5.63;;;;;;;3.78;41.72;99038.06;8447303;28;20227;-66
2023/01/29 08:14:51;;;;;;;7.10;6.47;;;;;;;3.87;41.73;99029.53;8447349;28;20231;-66
2023/01/29 08:18:54;;;;;;;8.93;8.13;;;;;;;3.76;41.79;99000.47;8447132;28;20242;-66
2023/01/29 08:23:01;;;;;;;6.73;6.13;;;;;;;4.02;41.44;99032.06;8446851;28;20238;-66
2023/01/29 08:27:04;;;;;;;7.00;6.40;;;;;;;4.05;40.77;99033.78;8446800;28;20238;-66
2023/01/29 08:31:14;;;;;;;6.80;6.10;;;;;;;4.13;40.96;99042.28;8446817;28;20235;-66
2023/01/29 08:35:17;;;;;;;10.57;9.03;;;;;;;4.09;40.79;99038.91;8446529;28;20231;-66
2023/01/29 08:39:20;;;;;;;7.40;6.70;;;;;;;4.16;40.88;99052.56;8446380;28;20236;-66
2023/01/29 08:43:23;;;;;;;5.80;5.30;;;;;;;4.02;41.13;99051.72;8446463;28;20246;-66
2023/01/29 08:47:27;;;;;;;7.47;6.70;;;;;;;4.24;40.49;99040.56;8446105;28;20275;-66
2023/01/29 08:51:31;;;;;;;7.30;5.73;;;;;;;4.23;41.16;99041.44;8446264;28;20224;-66
2023/01/29 08:55:35;;;;;;;7.57;5.60;;;;;;;4.01;41.76;99050.00;8445158;28;20318;-66
2023/01/29 08:59:38;;;;;;;6.57;5.97;;;;;;;4.32;40.45;99063.63;8446166;28;20224;-66
2023/01/29 09:03:43;;;;;;;5.73;5.23;;;;;;;4.36;40.58;99062.81;8445616;28;20223;-66
2023/01/29 09:07:46;;;;;;;5.53;5.13;;;;;;;4.14;40.18;99076.50;8445316;28;20239;-66
2023/01/29 09:11:48;;;;;;;5.30;4.77;;;;;;;4.18;40.41;99067.94;8445770;28;20220;-66
2023/01/29 09:15:51;;;;;;;8.03;7.23;;;;;;;4.08;40.87;99057.69;8445501;28;20238;-66
2023/01/29 09:19:55;;;;;;;6.83;5.60;;;;;;;4.30;40.59;99053.41;8444994;28;20234;-66
2023/01/29 09:23:58;;;;;;;6.57;5.97;;;;;;;4.27;40.32;99057.69;8445170;28;20228;-66
2023/01/29 09:28:01;;;;;;;5.97;5.40;;;;;;;4.42;40.46;99049.13;8445156;28;20243;-66
2023/01/29 09:32:04;;;;;;;7.80;7.13;;;;;;;4.48;40.01;99031.97;8444822;28;20427;-66
2023/01/29 09:36:10;;;;;;;7.27;6.57;;;;;;;4.36;40.07;99042.28;8444983;28;20227;-66
2023/01/29 09:40:24;;;;;;;8.10;7.40;;;;;;;5.55;38.28;99031.47;8444862;28;20219;-66
2023/01/29 09:44:38;;;;;;;7.70;7.10;;;;;;;5.24;38.19;99014.53;8444920;28;20239;-66
2023/01/29 09:48:42;;;;;;;10.00;9.00;;;;;;;5.32;38.71;99003.38;8444331;28;20224;-66
2023/01/29 09:52:49;;;;;;;6.40;5.80;;;;;;;5.38;37.59;98968.19;8444675;28;20227;-66
2023/01/29 09:56:54;;;;;;;7.30;6.60;;;;;;;5.76;36.90;99003.03;8444652;28;20227;-66
2023/01/29 10:01:03;;;;;;;6.87;6.27;;;;;;;5.96;36.98;98994.31;8444566;28;20232;-66
2023/01/29 10:05:21;;;;;;;7.47;6.77;;;;;;;6.40;35.81;99004.16;8445332;28;20406;-66
2023/01/29 10:09:46;;;;;;;7.40;6.70;;;;;;;6.47;35.66;99022.94;8451252;28;20225;-66
2023/01/29 10:13:54;;;;;;;6.97;6.37;;;;;;;5.79;36.87;99036.44;8450811;28;20402;-66
2023/01/29 10:18:06;;;;;;;7.73;7.13;;;;;;;5.70;37.02;99033.91;8451034;28;20231;-66
2023/01/29 10:23:02;;;;;;;8.23;7.27;;;;;;;5.82;37.87;99048.38;8450944;28;20223;-66
2023/01/29 10:27:12;;;;;;;7.33;6.63;;;;;;;6.21;37.78;99038.66;8344780;28;20224;-66
2023/01/29 10:31:18;;;;;;;9.43;8.43;;;;;;;5.43;39.03;99045.25;8450668;28;20235;-66
2023/01/29 10:35:23;;;;;;;8.30;7.50;;;;;;;5.64;38.45;99049.41;8450126;28;20304;-66
2023/01/29 10:39:27;;;;;;;7.20;6.60;;;;;;;5.78;37.76;99047.56;8450330;28;20229;-66
2023/01/29 10:43:34;;;;;;;9.90;9.10;;;;;;;5.85;37.89;99043.25;8450024;28;20230;-66
2023/01/29 10:48:10;;;;;;;8.07;7.37;;;;;;;5.60;38.39;99025.44;8449744;28;20239;-66
2023/01/29 10:52:23;;;;;;;7.93;7.13;;;;;;;5.56;38.76;99015.16;8405848;28;20232;-66
2023/01/29 10:56:39;;;;;;;8.70;7.90;;;;;;;5.45;38.27;99012.69;8449589;28;20230;-66
2023/01/29 11:00:44;;;;;;;8.23;7.43;;;;;;;5.54;38.11;99007.50;8449099;28;20232;-66
2023/01/29 11:04:47;;;;;;;8.47;7.67;;;;;;;5.25;38.64;98954.63;8449182;28;20224;-66
2023/01/29 11:08:54;;;;;;;13.00;11.70;;;;;;;5.76;38.39;98977.31;8449195;28;20236;-66
2023/01/29 11:12:57;;;;;;;8.10;7.40;;;;;;;5.53;38.12;98969.81;8449053;28;20553;-66
2023/01/29 11:17:02;;;;;;;8.33;7.53;;;;;;;5.52;38.42;98968.13;8448108;28;20304;-66
2023/01/29 11:21:06;;;;;;;8.77;7.97;;;;;;;5.48;38.76;98951.88;8448747;28;20440;-66
2023/01/29 11:25:15;;;;;;;8.90;7.80;;;;;;;4.95;40.21;98945.41;8448903;28;20237;-66
2023/01/29 11:29:30;;;;;;;9.40;8.60;;;;;;;5.54;38.81;98939.81;8448587;28;20235;-66
2023/01/29 11:33:35;;;;;;;8.17;7.47;;;;;;;5.57;38.69;98937.22;8448197;28;20530;-66
2023/01/29 11:37:40;;;;;;;8.63;7.83;;;;;;;5.54;39.07;98901.28;8448174;28;20227;-66
2023/01/29 11:41:43;;;;;;;9.10;8.20;;;;;;;5.66;38.51;98909.72;8447644;28;20226;-66
2023/01/29 11:45:46;;;;;;;7.73;7.03;;;;;;;5.32;38.02;98864.66;8447906;28;20232;-66
2023/01/29 11:49:52;;;;;;;9.07;8.27;;;;;;;5.68;38.17;98907.16;8447578;28;20409;-66
2023/01/29 11:53:57;;;;;;;9.13;8.27;;;;;;;5.52;38.46;98893.59;8447955;28;20235;-66
2023/01/29 11:58:03;;;;;;;8.97;8.17;;;;;;;5.66;38.98;98853.19;8447554;28;20224;-66
2023/01/29 12:02:17;;;;;;;9.30;8.40;;;;;;;5.84;38.55;98875.25;8447576;28;20227;-66
2023/01/29 12:06:23;;;;;;;9.40;8.27;;;;;;;5.79;37.91;98871.91;8447226;28;20228;-66
2023/01/29 12:10:31;;;;;;;8.40;7.70;;;;;;;5.37;39.51;98860.31;8447312;28;20223;-66
2023/01/29 12:14:35;;;;;;;9.27;8.50;;;;;;;5.74;38.64;98877.97;8446672;28;20233;-66
2023/01/29 12:18:40;;;;;;;8.77;7.97;;;;;;;5.74;38.95;98867.69;8446420;28;20223;-66
2023/01/29 12:22:47;;;;;;;9.03;8.23;;;;;;;5.92;38.96;98870.06;8445581;28;20602;-66
2023/01/29 12:26:53;;;;;;;9.20;8.30;;;;;;;6.05;38.67;98856.22;8446273;28;20233;-66
2023/01/29 12:31:08;;;;;;;9.10;8.20;;;;;;;5.94;38.54;98847.75;8445776;28;20289;-66
2023/01/29 12:35:15;;;;;;;8.60;7.90;;;;;;;5.64;39.61;98839.50;8445647;28;20246;-66
2023/01/29 12:39:20;;;;;;;8.80;8.00;;;;;;;5.86;39.22;98824.72;8446100;28;20227;-67
2023/01/29 12:43:26;;;;;;;7.90;7.00;;;;;;;6.04;38.35;98822.81;8446054;28;20226;-67
2023/01/29 12:47:31;;;;;;;7.80;7.10;;;;;;;5.56;40.03;98823.31;8445981;28;20563;-66
2023/01/29 12:51:40;;;;;;;7.10;6.50;;;;;;;5.64;37.61;98689.63;8445884;28;20230;-66
2023/01/29 12:55:46;;;;;;;6.93;6.33;;;;;;;5.94;38.79;98805.75;8445437;28;20220;-66
2023/01/29 12:59:53;;;;;;;6.80;6.07;;;;;;;6.42;37.17;98801.72;8445616;28;20227;-67
2023/01/29 13:04:00;;;;;;;5.97;5.47;;;;;;;5.15;38.66;98798.88;8444799;28;20387;-66
2023/01/29 13:08:07;;;;;;;7.00;6.40;;;;;;;5.38;38.65;98770.41;8444870;28;20426;-66
2023/01/29 13:12:14;;;;;;;7.10;6.50;;;;;;;5.86;38.47;98798.13;8444723;28;20433;-66
2023/01/29 13:16:21;;;;;;;6.63;6.07;;;;;;;5.63;39.34;98791.53;8444823;28;20227;-66
2023/01/29 13:20:27;;;;;;;6.33;5.73;;;;;;;5.60;38.84;98803.59;8444540;28;20227;-67
2023/01/29 13:24:35;;;;;;;6.60;6.00;;;;;;;5.02;40.03;98775.03;8444777;28;20231;-66
2023/01/29 13:28:40;;;;;;;7.17;6.53;;;;;;;5.39;39.86;98781.56;8444694;28;20228;-66
2023/01/29 13:32:42;;;;;;;6.50;6.00;;;;;;;5.28;39.62;98766.25;8443814;28;20227;-66
2023/01/29 13:36:47;;;;;;;6.83;6.33;;;;;;;5.12;39.98;98768.09;8444655;28;20236;-66
2023/01/29 13:40:50;;;;;;;6.37;5.77;;;;;;;5.68;38.98;98764.06;8443769;28;20231;-67
2023/01/29 13:44:56;;;;;;;6.53;6.00;;;;;;;5.86;39.35;98775.88;8444075;28;20231;-66
2023/01/29 13:49:03;;;;;;;6.33;5.73;;;;;;;5.73;39.03;98787.16;8444143;28;20239;-66
2023/01/29 13:53:07;;;;;;;8.00;7.30;;;;;;;5.97;38.10;98788.59;8443940;28;20252;-67
2023/01/29 13:57:36;;;;;;;7.47;6.77;;;;;;;6.09;37.87;98784.16;8444056;28;20463;-66
2023/01/29 14:02:02;;;;;;;6.53;6.03;;;;;;;6.01;38.73;98774.81;8444133;28;20235;-67
2023/01/29 14:06:05;;;;;;;6.43;5.93;;;;;;;6.45;38.21;98788.81;8443542;28;20405;-66
2023/01/29 14:10:16;;;;;;;6.17;5.67;;;;;;;6.15;37.89;98705.22;8443747;28;20250;-67
2023/01/29 14:15:01;;;;;;;6.80;6.20;;;;;;;6.85;37.45;98782.19;8443690;28;20224;-66
2023/01/29 14:19:05;;;;;;;6.40;5.90;;;;;;;6.38;38.29;98778.66;8442917;28;20230;-67
2023/01/29 14:23:08;;;;;;;7.20;6.50;;;;;;;6.51;38.46;98774.16;8443526;28;20311;-66
2023/01/29 14:27:19;;;;;;;6.83;6.23;;;;;;;6.28;38.90;98762.47;8443456;28;20231;-67
2023/01/29 14:31:39;;;;;;;6.57;6.00;;;;;;;6.76;38.27;98760.03;8443364;28;20378;-66
2023/01/29 14:35:49;;;;;;;5.97;5.47;;;;;;;9.66;56.51;98764.88;8442701;28;20422;-68
2023/01/29 14:39:53;;;;;;;6.77;6.27;;;;;;;7.90;38.68;98750.19;8443286;28;20291;-67
2023/01/29 14:44:33;;;;;;;6.97;6.37;;;;;;;7.18;38.06;98752.44;8443349;28;20239;-67
2023/01/29 14:48:39;;;;;;;6.10;5.70;;;;;;;7.10;38.21;98753.44;8443016;28;20231;-66
2023/01/29 14:52:42;;;;;;;7.30;6.70;;;;;;;6.59;38.86;98746.59;8444564;28;20230;-66
2023/01/29 14:56:50;;;;;;;6.93;6.33;;;;;;;6.28;39.54;98734.16;8449118;28;20234;-67
2023/01/29 15:00:55;;;;;;;7.43;6.73;;;;;;;6.39;39.41;98742.56;8449185;28;20227;-67
2023/01/29 15:05:00;;;;;;;7.87;7.17;;;;;;;6.19;39.48;98727.44;8448537;28;20228;-66
2023/01/29 15:09:10;;;;;;;7.63;6.93;;;;;;;6.28;39.60;98734.16;8448493;28;20227;-66
2023/01/29 15:13:17;;;;;;;7.00;6.23;;;;;;;6.15;39.65;98737.78;8448618;28;20220;-65
2023/01/29 15:17:27;;;;;;;7.60;6.90;;;;;;;5.99;39.90;98744.88;8447145;28;20254;-66
2023/01/29 15:21:31;;;;;;;6.83;6.33;;;;;;;6.02;39.93;98743.13;8448138;28;20238;-66
2023/01/29 15:25:36;;;;;;;10.10;9.10;;;;;;;5.80;40.13;98727.09;8448544;28;20230;-66
2023/01/29 15:29:39;;;;;;;8.60;7.70;;;;;;;5.88;40.10;98726.97;8448340;28;20229;-66
2023/01/29 15:33:44;;;;;;;14.20;12.87;;;;;;;5.74;40.81;98716.88;8447171;28;20258;-67
2023/01/29 15:38:00;;;;;;;7.13;6.43;;;;;;;4.70;40.61;98545.25;8447699;28;20227;-67
2023/01/29 15:42:13;;;;;;;7.75;7.10;;;;;;;6.18;39.57;98712.03;8446614;28;20729;-67
2023/01/29 15:46:28;;;;;;;7.37;6.57;;;;;;;5.62;40.90;98707.63;8447935;28;20230;-66
2023/01/29 15:50:31;;;;;;;7.17;6.57;;;;;;;5.60;41.40;98709.34;8447049;28;20224;-66
2023/01/29 15:54:36;;;;;;;7.57;6.87;;;;;;;5.51;41.56;98706.91;8447623;28;20234;-66
2023/01/29 15:58:40;;;;;;;6.63;6.03;;;;;;;5.36;42.10;98707.94;8447261;28;20613;-67
2023/01/29 16:02:42;;;;;;;7.80;7.00;;;;;;;5.24;42.20;98702.94;8445800;28;20227;-66
2023/01/29 16:06:46;;;;;;;7.20;6.47;;;;;;;5.14;42.70;98699.63;8446590;28;20227;-65
2023/01/29 16:10:53;;;;;;;7.27;6.67;;;;;;;5.17;42.60;98694.44;8446658;28;20228;-65
2023/01/29 16:14:57;;;;;;;8.67;7.87;;;;;;;5.13;42.64;98697.91;8446545;28;20334;-66
2023/01/29 16:18:59;;;;;;;9.43;8.63;;;;;;;5.08;42.77;98676.56;8446261;28;20231;-66
2023/01/29 16:23:03;;;;;;;9.90;9.00;;;;;;;5.15;43.09;98680.78;8445796;28;20231;-66
2023/01/29 16:27:11;;;;;;;11.47;10.37;;;;;;;5.21;42.62;98685.81;8446418;28;20231;-66
2023/01/29 16:31:21;;;;;;;14.17;12.37;;;;;;;4.97;43.09;98665.56;8445759;28;20224;-66
2023/01/29 16:35:24;;;;;;;17.30;14.87;;;;;;;5.04;43.35;98677.47;8444390;28;20290;-66
2023/01/29 16:39:31;;;;;;;19.57;16.07;;;;;;;4.88;43.59;98685.31;8445241;28;20227;-66
2023/01/29 16:43:56;;;;;;;16.10;13.53;;;;;;;4.94;43.53;98681.84;8445300;28;20234;-66
2023/01/29 16:48:05;;;;;;;16.00;13.30;;;;;;;4.80;43.87;98674.28;8444861;28;20327;-66
2023/01/29 16:52:17;;;;;;;16.10;12.33;;;;;;;4.52;44.37;98629.25;8445181;28;20224;-66
2023/01/29 16:56:22;;;;;;;10.47;9.33;;;;;;;4.74;44.23;98681.19;8445230;28;20557;-66
2023/01/29 17:00:27;;;;;;;11.17;9.97;;;;;;;4.69;44.79;98681.25;8444562;28;20231;-66
2023/01/29 17:04:31;;;;;;;9.97;8.97;;;;;;;4.63;44.64;98674.44;8444979;28;20417;-66
2023/01/29 17:08:34;;;;;;;10.07;9.07;;;;;;;4.50;44.80;98660.03;8444781;28;20233;-66
2023/01/29 17:12:37;;;;;;;10.80;9.70;;;;;;;3.09;45.13;98431.41;8444892;28;20307;-66
2023/01/29 17:16:50;;;;;;;10.60;9.60;;;;;;;4.48;45.04;98669.47;8443808;28;20231;-66
2023/01/29 17:20:53;;;;;;;11.67;9.40;;;;;;;4.43;44.81;98668.63;8444286;28;20228;-66
2023/01/29 17:24:56;;;;;;;11.23;9.40;;;;;;;4.54;45.40;98663.44;8444405;28;20238;-66
2023/01/29 17:28:59;;;;;;;11.67;10.47;;;;;;;4.62;44.84;98662.47;8444213;28;20315;-66
2023/01/29 17:33:10;;;;;;;11.20;10.10;;;;;;;4.51;44.66;98666.84;8444063;28;20270;-66
2023/01/29 17:37:14;;;;;;;13.10;11.57;;;;;;;4.45;44.82;98662.63;8444479;28;20227;-67
2023/01/29 17:41:22;;;;;;;13.20;11.17;;;;;;;4.28;45.62;98646.53;8444503;28;20413;-67
2023/01/29 17:45:26;;;;;;;12.97;10.93;;;;;;;4.38;45.88;98666.13;8444373;28;20302;-67
2023/01/29 17:49:32;;;;;;;13.63;11.60;;;;;;;4.34;45.58;98653.31;8444259;28;20234;-67
2023/01/29 17:53:35;;;;;;;19.23;15.33;;;;;;;4.46;45.93;98684.00;8444392;28;20403;-67
2023/01/29 17:57:47;;;;;;;17.13;14.33;;;;;;;4.29;46.03;98682.41;8443839;28;20232;-67
2023/01/29 18:01:51;;;;;;;16.17;14.27;;;;;;;4.19;46.38;98680.81;8443867;28;20220;-66
2023/01/29 18:05:56;;;;;;;15.70;14.00;;;;;;;4.34;46.11;98679.84;8443781;28;20298;-66
2023/01/29 18:09:59;;;;;;;19.57;16.37;;;;;;;4.28;46.58;98678.16;8443494;28;20262;-66
2023/01/29 18:14:02;;;;;;;18.70;16.83;;;;;;;4.16;46.63;98691.06;8443155;28;20243;-66
2023/01/29 18:18:18;;;;;;;19.27;17.27;;;;;;;4.10;46.49;98684.25;8443455;28;20421;-67
2023/01/29 18:22:23;;;;;;;19.77;17.77;;;;;;;4.14;46.48;98689.38;8443514;28;20223;-66
2023/01/29 18:26:26;;;;;;;18.03;16.23;;;;;;;3.85;47.45;98691.25;8444994;28;20227;-67
2023/01/29 18:30:29;;;;;;;16.33;14.70;;;;;;;3.46;46.94;98600.97;8450003;28;20246;-67
2023/01/29 18:34:32;;;;;;;15.50;13.90;;;;;;;3.95;47.01;98684.38;8449362;28;20557;-66
2023/01/29 18:38:36;;;;;;;16.73;14.93;;;;;;;3.95;46.48;98699.75;8449336;28;20231;-67
2023/01/29 18:42:39;;;;;;;17.70;15.30;;;;;;;3.95;46.88;98692.06;8449372;28;20257;-66
2023/01/29 18:46:42;;;;;;;16.90;15.03;;;;;;;3.88;46.97;98687.81;8448707;28;20309;-67
2023/01/29 18:50:44;;;;;;;22.80;18.47;;;;;;;3.83;47.20;98689.59;8448713;28;20419;-67
2023/01/29 18:54:49;;;;;;;23.00;18.17;;;;;;;3.92;47.10;98689.50;8448913;28;20549;-67
2023/01/29 18:58:55;;;;;;;25.23;20.80;;;;;;;3.88;47.38;98693.81;8448805;28;20231;-67
2023/01/29 19:02:58;;;;;;;30.17;22.80;;;;;;;3.68;47.57;98686.22;8448742;28;20254;-67
2023/01/29 19:07:03;;;;;;;25.70;21.87;;;;;;;3.71;47.58;98693.03;8448170;28;20232;-67
2023/01/29 19:11:07;;;;;;;20.37;18.17;;;;;;;3.65;47.52;98688.78;8448150;28;20228;-67
2023/01/29 19:15:11;;;;;;;24.23;19.43;;;;;;;3.64;48.28;98681.16;8448135;28;20422;-67
2023/01/29 19:19:14;;;;;;;25.50;20.50;;;;;;;3.70;47.79;98663.16;8447196;28;20235;-67
2023/01/29 19:23:17;;;;;;;32.37;23.77;;;;;;;3.75;47.80;98675.94;8448788;28;20234;-67
2023/01/29 19:27:21;;;;;;;39.63;27.03;;;;;;;3.46;47.82;98647.06;8448554;28;20250;-66
2023/01/29 19:31:24;;;;;;;44.80;31.17;;;;;;;3.56;47.77;98683.75;8448484;28;20538;-66
2023/01/29 19:35:27;;;;;;;42.10;28.90;;;;;;;3.53;48.06;98676.06;8447993;28;20232;-66
2023/01/29 19:39:32;;;;;;;45.27;31.27;;;;;;;3.65;47.80;98660.63;8447720;28;20427;-66
2023/01/29 19:43:39;;;;;;;33.03;24.67;;;;;;;3.45;48.13;98650.50;8448358;28;20624;-66
2023/01/29 19:47:43;;;;;;;27.40;21.67;;;;;;;3.41;47.99;98638.56;8447226;28;20215;-67
2023/01/29 19:51:45;;;;;;;28.90;21.77;;;;;;;3.40;48.09;98636.84;8447988;28;20232;-67